Time;durP1;ratioP1;P1;durP2;ratioP2;P2;SDS_P1;SDS_P2;PMS_P1;PMS_P2;Temp;Humidity;BMP_temperature;BMP_pressure;BME280_temperature;BME280_humidity;BME280_pressure;Samples;Min_cycle;Max_cycle;Signal;HPM_P1;HPM_P2
2022/09/26 00:00:06;;;;;;;8.55;7.50;;;;;;;;;;6278688;28;20112;-62
2022/09/26 00:03:08;;;;;;;9.48;7.22;;;;;;;;;;6281919;28;20094;-64
2022/09/26 00:06:11;;;;;;;8.80;7.45;;;;;;;;;;6280770;28;20067;-63
2022/09/26 00:09:15;;;;;;;7.57;6.82;;;;;;;;;;6282287;28;20048;-62
2022/09/26 00:12:17;;;;;;;7.55;6.55;;;;;;;;;;6281180;28;20044;-63
2022/09/26 00:15:18;;;;;;;10.18;6.82;;;;;;;;;;6282376;28;20044;-61
2022/09/26 00:18:20;;;;;;;9.48;6.93;;;;;;;;;;6281545;28;20064;-61
2022/09/26 00:21:23;;;;;;;10.77;6.82;;;;;;;;;;6278442;28;20224;-64
2022/09/26 00:24:26;;;;;;;8.85;7.40;;;;;;;;;;6279780;28;20407;-63
2022/09/26 00:27:27;;;;;;;10.53;8.23;;;;;;;;;;6277440;28;20049;-63
2022/09/26 00:30:29;;;;;;;11.50;8.15;;;;;;;;;;6279705;28;20052;-62
2022/09/26 00:33:31;;;;;;;9.38;8.38;;;;;;;;;;6280887;28;20267;-61
2022/09/26 00:36:33;;;;;;;9.52;8.40;;;;;;;;;;6280158;28;20052;-65
2022/09/26 00:39:36;;;;;;;10.27;9.23;;;;;;;;;;6279236;28;20053;-63
2022/09/26 00:42:37;;;;;;;10.13;8.70;;;;;;;;;;6281583;28;20053;-66
2022/09/26 00:45:39;;;;;;;10.20;8.57;;;;;;;;;;6281344;28;20508;-62
2022/09/26 00:48:42;;;;;;;11.20;8.88;;;;;;;;;;6280876;28;20107;-62
2022/09/26 00:51:46;;;;;;;11.82;8.80;;;;;;;;;;6279510;28;20072;-62
2022/09/26 00:54:51;;;;;;;10.13;8.52;;;;;;;;;;6274509;28;20120;-62
2022/09/26 00:57:57;;;;;;;9.90;8.52;;;;;;;;;;6275609;28;20045;-62
2022/09/26 01:00:59;;;;;;;9.55;8.20;;;;;;;;;;6276631;28;20061;-62
2022/09/26 01:04:02;;;;;;;10.68;8.35;;;;;;;;;;6274912;28;20052;-62
2022/09/26 01:07:07;;;;;;;9.90;8.23;;;;;;;;;;6273634;28;20290;-62
2022/09/26 01:10:11;;;;;;;10.55;8.52;;;;;;;;;;6275147;28;20110;-62
2022/09/26 01:13:13;;;;;;;10.40;8.40;;;;;;;;;;6274235;28;20053;-61
2022/09/26 01:16:15;;;;;;;9.20;7.97;;;;;;;;;;6278181;28;20063;-61
2022/09/26 01:19:24;;;;;;;8.52;7.45;;;;;;;;;;6277217;28;20052;-61
2022/09/26 01:23:06;;;;;;;8.07;6.95;;;;;;;;;;6277489;28;20080;-62
2022/09/26 01:26:28;;;;;;;8.32;7.53;;;;;;;;;;6272286;28;20110;-62
2022/09/26 01:29:59;;;;;;;8.45;7.22;;;;;;;;;;6281286;28;20053;-63
2022/09/26 01:33:24;;;;;;;9.15;7.20;;;;;;;;;;6276033;28;20040;-62
2022/09/26 01:36:45;;;;;;;7.40;6.70;;;;;;;;;;6280080;28;20061;-61
2022/09/26 01:39:54;;;;;;;8.10;6.95;;;;;;;;;;6279177;28;20128;-62
2022/09/26 01:43:05;;;;;;;8.68;6.93;;;;;;;;;;6276008;28;20095;-62
2022/09/26 01:46:19;;;;;;;7.50;6.60;;;;;;;;;;6274683;28;20052;-61
2022/09/26 01:49:25;;;;;;;7.70;6.53;;;;;;;;;;6279002;28;20124;-62
2022/09/26 01:52:32;;;;;;;7.20;6.47;;;;;;;;;;6275084;28;20098;-62
2022/09/26 01:55:37;;;;;;;7.93;7.20;;;;;;;;;;6275927;28;20040;-62
2022/09/26 01:58:42;;;;;;;8.68;7.78;;;;;;;;;;6275520;28;20360;-62
2022/09/26 02:01:45;;;;;;;8.68;7.78;;;;;;;;;;6276825;28;20057;-61
2022/09/26 02:04:50;;;;;;;9.95;7.55;;;;;;;;;;6274520;28;20049;-64
2022/09/26 02:07:55;;;;;;;7.90;7.10;;;;;;;;;;6273847;28;20045;-62
2022/09/26 02:11:01;;;;;;;8.48;7.50;;;;;;;;;;6275093;28;20225;-62
2022/09/26 02:14:04;;;;;;;10.30;7.43;;;;;;;;;;6272341;28;20213;-62
2022/09/26 02:17:09;;;;;;;7.80;7.00;;;;;;;;;;6274942;28;20206;-62
2022/09/26 02:20:16;;;;;;;11.80;8.45;;;;;;;;;;6275087;28;20058;-62
2022/09/26 02:23:18;;;;;;;8.80;7.47;;;;;;;;;;6275765;28;20295;-62
2022/09/26 02:26:20;;;;;;;8.75;7.82;;;;;;;;;;6270518;28;20325;-62
2022/09/26 02:29:21;;;;;;;8.60;7.70;;;;;;;;;;6273526;28;20098;-64
2022/09/26 02:32:28;;;;;;;9.85;7.82;;;;;;;;;;6274008;28;20094;-62
2022/09/26 02:38:50;;;;;;;9.40;7.72;;;;;;;;;;6274526;28;20112;-62
2022/09/26 02:41:57;;;;;;;10.77;7.95;;;;;;;;;;6274418;28;20064;-61
2022/09/26 02:45:16;;;;;;;8.23;7.35;;;;;;;;;;6272650;28;20347;-62
2022/09/26 02:48:27;;;;;;;8.38;7.35;;;;;;;;;;6273053;28;20048;-63
2022/09/26 02:51:43;;;;;;;8.95;6.63;;;;;;;;;;6274301;28;20509;-64
2022/09/26 02:54:49;;;;;;;8.00;7.20;;;;;;;;;;6273089;28;20053;-62
2022/09/26 02:58:04;;;;;;;8.00;6.43;;;;;;;;;;6271576;28;20147;-62
2022/09/26 03:01:09;;;;;;;7.82;6.90;;;;;;;;;;6274259;28;20045;-62
2022/09/26 03:04:14;;;;;;;9.10;6.90;;;;;;;;;;6269901;28;20049;-62
2022/09/26 03:07:22;;;;;;;8.25;6.82;;;;;;;;;;6272934;28;20045;-63
2022/09/26 03:10:26;;;;;;;9.35;6.75;;;;;;;;;;6273112;28;20294;-62
2022/09/26 03:13:28;;;;;;;7.97;7.07;;;;;;;;;;6272580;28;20040;-62
2022/09/26 03:16:34;;;;;;;7.57;6.78;;;;;;;;;;6268575;28;20056;-61
2022/09/26 03:19:39;;;;;;;9.15;7.10;;;;;;;;;;6273021;28;20103;-61
2022/09/26 03:22:43;;;;;;;9.00;7.10;;;;;;;;;;6272252;28;20049;-62
2022/09/26 03:25:45;;;;;;;8.45;7.13;;;;;;;;;;6271045;28;20053;-62
2022/09/26 03:28:47;;;;;;;8.38;7.13;;;;;;;;;;6272527;28;20112;-61
2022/09/26 03:31:49;;;;;;;7.65;6.45;;;;;;;;;;6273548;28;20102;-62
2022/09/26 03:34:50;;;;;;;7.40;6.45;;;;;;;;;;6272298;28;20112;-64
2022/09/26 03:37:53;;;;;;;8.45;6.47;;;;;;;;;;6269669;28;20350;-62
2022/09/26 03:40:57;;;;;;;8.27;6.73;;;;;;;;;;6274302;28;20045;-62
2022/09/26 03:43:58;;;;;;;8.30;6.57;;;;;;;;;;6274062;28;20053;-66
2022/09/26 03:47:00;;;;;;;8.00;7.15;;;;;;;;;;6271149;28;20053;-62
2022/09/26 03:50:02;;;;;;;9.80;7.28;;;;;;;;;;6270513;28;20324;-64
2022/09/26 03:53:05;;;;;;;7.85;6.85;;;;;;;;;;6275574;28;20061;-62
2022/09/26 03:56:08;;;;;;;10.18;7.38;;;;;;;;;;6273325;28;20378;-62
2022/09/26 03:59:10;;;;;;;9.05;6.68;;;;;;;;;;6272605;28;20049;-62
2022/09/26 04:02:12;;;;;;;7.22;6.50;;;;;;;;;;6272849;28;20247;-63
2022/09/26 04:05:14;;;;;;;8.93;6.72;;;;;;;;;;6271140;28;20051;-62
2022/09/26 04:08:17;;;;;;;7.30;6.60;;;;;;;;;;6269920;28;20103;-65
2022/09/26 04:11:21;;;;;;;9.33;6.77;;;;;;;;;;6271176;28;20241;-63
2022/09/26 04:14:23;;;;;;;8.27;6.60;;;;;;;;;;6271183;28;20049;-62
2022/09/26 04:17:25;;;;;;;9.13;6.78;;;;;;;;;;6272758;28;20068;-62
2022/09/26 04:20:26;;;;;;;7.65;6.53;;;;;;;;;;6273500;28;20055;-61
2022/09/26 04:23:32;;;;;;;6.93;6.22;;;;;;;;;;6274421;28;20053;-63
2022/09/26 04:26:34;;;;;;;8.05;6.18;;;;;;;;;;6271376;28;20151;-61
2022/09/26 04:29:35;;;;;;;9.65;5.65;;;;;;;;;;6268554;28;20067;-61
2022/09/26 04:32:37;;;;;;;7.22;5.82;;;;;;;;;;6272633;28;20214;-61
2022/09/26 04:35:39;;;;;;;7.93;5.55;;;;;;;;;;6273742;28;20060;-64
2022/09/26 04:38:42;;;;;;;6.63;5.22;;;;;;;;;;6278169;28;20049;-62
2022/09/26 04:41:43;;;;;;;7.07;5.00;;;;;;;;;;6276604;28;20239;-62
2022/09/26 04:44:45;;;;;;;8.90;5.13;;;;;;;;;;6275420;28;20049;-62
2022/09/26 04:47:47;;;;;;;6.88;4.70;;;;;;;;;;6278411;28;20048;-63
2022/09/26 04:50:48;;;;;;;5.72;5.20;;;;;;;;;;6277223;28;20328;-64
2022/09/26 04:53:52;;;;;;;5.97;5.05;;;;;;;;;;6276081;28;20060;-61
2022/09/26 04:56:53;;;;;;;5.55;4.97;;;;;;;;;;6277275;28;20098;-61
2022/09/26 04:59:55;;;;;;;7.20;5.05;;;;;;;;;;6275805;28;20259;-61
2022/09/26 05:02:58;;;;;;;6.03;5.30;;;;;;;;;;6272868;28;20053;-64
2022/09/26 05:06:00;;;;;;;7.63;5.13;;;;;;;;;;6272661;28;20111;-62
2022/09/26 05:09:03;;;;;;;6.90;4.97;;;;;;;;;;6276278;28;20053;-65
2022/09/26 05:12:05;;;;;;;7.22;5.55;;;;;;;;;;6271811;28;20091;-64
2022/09/26 05:15:08;;;;;;;5.82;4.97;;;;;;;;;;6278098;28;20053;-62
2022/09/26 05:18:10;;;;;;;7.95;5.93;;;;;;;;;;6274728;28;20059;-62
2022/09/26 05:21:12;;;;;;;6.53;5.30;;;;;;;;;;6271543;28;20147;-64
2022/09/26 05:27:34;;;;;;;6.13;5.20;;;;;;;;;;6274899;28;20247;-65
2022/09/26 05:30:35;;;;;;;7.90;5.22;;;;;;;;;;6274562;28;20057;-64
2022/09/26 05:33:37;;;;;;;5.65;4.75;;;;;;;;;;6276288;28;20051;-64
2022/09/26 05:36:41;;;;;;;6.30;5.05;;;;;;;;;;6277327;28;20080;-64
2022/09/26 05:43:03;;;;;;;7.00;4.82;;;;;;;;;;6276563;28;20371;-64
2022/09/26 05:46:06;;;;;;;5.88;5.10;;;;;;;;;;6279727;28;20057;-62
2022/09/26 05:49:09;;;;;;;7.43;5.15;;;;;;;;;;6280689;28;20045;-67
2022/09/26 05:52:11;;;;;;;6.95;4.65;;;;;;;;;;6280599;28;20049;-67
2022/09/26 05:55:14;;;;;;;8.43;5.93;;;;;;;;;;6278506;28;20048;-69
2022/09/26 05:58:17;;;;;;;6.23;5.50;;;;;;;;;;6274404;28;20049;-65
2022/09/26 06:01:19;;;;;;;6.87;5.70;;;;;;;;;;6272555;28;20041;-69
2022/09/26 06:04:20;;;;;;;7.72;6.05;;;;;;;;;;6270871;28;20364;-65
2022/09/26 06:07:22;;;;;;;7.45;6.03;;;;;;;;;;6275172;28;20144;-65
2022/09/26 06:10:25;;;;;;;10.13;6.00;;;;;;;;;;6270664;28;20087;-66
2022/09/26 06:13:27;;;;;;;8.75;7.00;;;;;;;;;;6273327;28;20049;-65
2022/09/26 06:16:28;;;;;;;7.05;6.00;;;;;;;;;;6270023;28;20049;-65
2022/09/26 06:19:30;;;;;;;12.30;7.20;;;;;;;;;;6271620;28;20290;-65
2022/09/26 06:22:36;;;;;;;9.25;7.13;;;;;;;;;;6267523;28;20130;-65
2022/09/26 06:25:39;;;;;;;11.23;7.30;;;;;;;;;;6276493;28;20111;-64
2022/09/26 06:28:41;;;;;;;10.43;7.20;;;;;;;;;;6273359;28;20045;-66
2022/09/26 06:31:43;;;;;;;11.55;8.20;;;;;;;;;;6273134;28;20098;-64
2022/09/26 06:34:45;;;;;;;9.95;7.70;;;;;;;;;;6274466;28;20414;-65
2022/09/26 06:37:47;;;;;;;11.52;7.97;;;;;;;;;;6274564;28;20328;-64
2022/09/26 06:40:51;;;;;;;9.57;8.23;;;;;;;;;;6275412;28;20056;-64
2022/09/26 06:43:53;;;;;;;10.45;7.85;;;;;;;;;;6272799;28;20095;-66
2022/09/26 06:46:55;;;;;;;11.40;8.02;;;;;;;;;;6270798;28;20701;-65
2022/09/26 06:49:56;;;;;;;11.65;8.27;;;;;;;;;;6271659;28;20053;-65
2022/09/26 06:53:02;;;;;;;13.43;8.13;;;;;;;;;;6274119;28;20232;-64
2022/09/26 06:56:05;;;;;;;16.42;8.50;;;;;;;;;;6269787;28;20344;-65
2022/09/26 06:59:07;;;;;;;10.35;8.50;;;;;;;;;;6272810;28;20110;-64
2022/09/26 07:02:09;;;;;;;14.43;8.93;;;;;;;;;;6271296;28;20045;-65
2022/09/26 07:05:12;;;;;;;9.95;8.30;;;;;;;;;;6270798;28;20053;-65
2022/09/26 07:08:13;;;;;;;11.80;8.13;;;;;;;;;;6276445;28;20085;-64
2022/09/26 07:11:16;;;;;;;10.90;8.35;;;;;;;;;;6274888;28;20041;-65
2022/09/26 07:14:18;;;;;;;12.17;8.63;;;;;;;;;;6272371;28;20213;-64
2022/09/26 07:17:21;;;;;;;11.20;7.78;;;;;;;;;;6271727;28;20045;-65
2022/09/26 07:20:23;;;;;;;9.80;7.60;;;;;;;;;;6273787;28;20045;-65
2022/09/26 07:23:25;;;;;;;7.88;6.13;;;;;;;;;;6274424;28;20052;-65
2022/09/26 07:26:28;;;;;;;8.25;6.85;;;;;;;;;;6270593;28;20041;-66
2022/09/26 07:29:29;;;;;;;8.18;6.68;;;;;;;;;;6271897;28;20320;-64
2022/09/26 07:32:31;;;;;;;7.53;6.72;;;;;;;;;;6273922;28;20060;-67
2022/09/26 07:35:34;;;;;;;9.05;7.72;;;;;;;;;;6274120;28;20659;-64
2022/09/26 07:38:36;;;;;;;7.97;7.10;;;;;;;;;;6270821;28;20106;-64
2022/09/26 07:41:39;;;;;;;8.73;7.05;;;;;;;;;;6274824;28;20271;-67
2022/09/26 07:44:40;;;;;;;10.77;5.75;;;;;;;;;;6273059;28;20112;-63
2022/09/26 07:51:01;;;;;;;6.85;5.28;;;;;;;;;;6253013;28;20296;-65
2022/09/26 07:54:02;;;;;;;7.60;5.53;;;;;;;;;;6274536;28;20071;-65
2022/09/26 07:57:05;;;;;;;6.70;6.00;;;;;;;;;;6272448;28;20057;-64
2022/09/26 08:00:11;;;;;;;9.43;6.80;;;;;;;;;;6274518;28;20111;-65
2022/09/26 08:03:13;;;;;;;8.02;6.13;;;;;;;;;;6272585;28;20057;-65
2022/09/26 08:06:18;;;;;;;9.60;5.93;;;;;;;;;;6271127;28;20057;-64
2022/09/26 08:09:20;;;;;;;7.82;5.38;;;;;;;;;;6271887;28;20052;-65
2022/09/26 08:12:23;;;;;;;6.65;5.80;;;;;;;;;;6276363;28;20252;-67
2022/09/26 08:15:25;;;;;;;8.88;5.78;;;;;;;;;;6277865;28;20056;-65
2022/09/26 08:18:27;;;;;;;6.18;4.97;;;;;;;;;;6276481;28;20087;-66
2022/09/26 08:21:28;;;;;;;7.00;4.95;;;;;;;;;;6277281;28;20239;-66
2022/09/26 08:24:30;;;;;;;6.40;5.18;;;;;;;;;;6278352;28;20056;-66
2022/09/26 08:27:34;;;;;;;6.18;5.57;;;;;;;;;;6277718;28;20049;-66
2022/09/26 08:30:35;;;;;;;7.95;5.60;;;;;;;;;;6275176;28;20052;-66
2022/09/26 08:33:37;;;;;;;9.18;5.07;;;;;;;;;;6276307;28;20116;-65
2022/09/26 08:36:39;;;;;;;6.18;5.20;;;;;;;;;;6277516;28;20045;-66
2022/09/26 08:39:40;;;;;;;9.10;5.50;;;;;;;;;;6278515;28;20067;-66
2022/09/26 08:42:53;;;;;;;5.80;4.53;;;;;;;;;;6276646;28;20056;-66
2022/09/26 08:46:32;;;;;;;5.20;3.80;;;;;;;;;;6275731;28;20110;-67
2022/09/26 08:49:44;;;;;;;5.53;4.25;;;;;;;;;;6278172;28;20119;-65
2022/09/26 08:52:49;;;;;;;5.68;4.03;;;;;;;;;;6276282;28;20141;-65
2022/09/26 08:55:52;;;;;;;12.90;4.20;;;;;;;;;;6277057;28;20056;-65
2022/09/26 08:58:56;;;;;;;4.95;4.45;;;;;;;;;;6275394;28;20087;-66
2022/09/26 09:02:03;;;;;;;5.97;4.38;;;;;;;;;;6277453;28;20049;-65
2022/09/26 09:05:08;;;;;;;5.97;4.07;;;;;;;;;;6273667;28;20049;-65
2022/09/26 09:08:13;;;;;;;3.72;3.22;;;;;;;;;;6272742;28;20053;-64
2022/09/26 09:11:22;;;;;;;6.57;3.38;;;;;;;;;;6277789;28;20049;-65
2022/09/26 09:14:36;;;;;;;5.32;3.35;;;;;;;;;;6273870;28;20052;-65
2022/09/26 09:17:41;;;;;;;5.13;3.60;;;;;;;;;;6276064;28;20061;-65
2022/09/26 09:20:52;;;;;;;5.82;4.50;;;;;;;;;;6275034;28;20106;-65
2022/09/26 09:24:06;;;;;;;5.22;4.38;;;;;;;;;;6275109;28;20336;-66
2022/09/26 09:27:16;;;;;;;5.07;4.15;;;;;;;;;;6274432;28;20056;-66
2022/09/26 09:30:21;;;;;;;5.00;4.50;;;;;;;;;;6275928;28;20320;-66
2022/09/26 09:33:26;;;;;;;6.60;4.80;;;;;;;;;;6278764;28;20080;-66
2022/09/26 09:36:32;;;;;;;5.30;4.47;;;;;;;;;;6276798;28;20040;-66
2022/09/26 09:39:36;;;;;;;6.93;5.55;;;;;;;;;;6275922;28;20057;-66
2022/09/26 09:42:41;;;;;;;6.93;5.72;;;;;;;;;;6277018;28;20060;-66
2022/09/26 09:45:47;;;;;;;9.63;5.90;;;;;;;;;;6274673;28;20052;-66
2022/09/26 09:48:50;;;;;;;5.10;4.60;;;;;;;;;;6273538;28;20087;-66
2022/09/26 09:52:03;;;;;;;12.50;6.97;;;;;;;;;;6276374;28;20056;-66
2022/09/26 09:55:16;;;;;;;6.85;6.15;;;;;;;;;;6278841;28;20057;-66
2022/09/26 09:58:50;;;;;;;10.32;7.82;;;;;;;;;;6272535;28;20053;-66
2022/09/26 10:01:58;;;;;;;7.75;6.55;;;;;;;;;;6272574;28;20237;-65
2022/09/26 10:05:07;;;;;;;8.82;7.18;;;;;;;;;;6281398;28;20037;-66
2022/09/26 10:08:12;;;;;;;8.50;7.22;;;;;;;;;;6281345;28;20275;-64
2022/09/26 10:11:22;;;;;;;14.40;6.65;;;;;;;;;;6281482;28;20381;-65
2022/09/26 10:14:28;;;;;;;12.68;8.50;;;;;;;;;;6275604;28;20037;-65
2022/09/26 10:17:31;;;;;;;11.68;9.57;;;;;;;;;;6273587;28;20178;-65
2022/09/26 10:20:38;;;;;;;10.98;9.23;;;;;;;;;;6273401;28;20570;-65
2022/09/26 10:23:44;;;;;;;10.38;8.95;;;;;;;;;;6274485;28;20344;-67
2022/09/26 10:26:48;;;;;;;21.23;14.80;;;;;;;;;;6272525;28;20048;-63
2022/09/26 10:29:56;;;;;;;35.55;24.50;;;;;;;;;;6277185;28;20122;-63
2022/09/26 10:33:00;;;;;;;34.58;26.35;;;;;;;;;;6277364;28;20087;-63
2022/09/26 10:36:10;;;;;;;156.40;103.60;;;;;;;;;;6273447;28;20053;-66
2022/09/26 10:42:37;;;;;;;21.63;16.23;;;;;;;;;;6276336;28;20041;-67
2022/09/26 10:45:38;;;;;;;12.10;8.80;;;;;;;;;;6273899;28;20053;-65
2022/09/26 10:48:46;;;;;;;9.40;7.93;;;;;;;;;;6272193;28;20040;-65
2022/09/26 10:51:53;;;;;;;9.10;6.50;;;;;;;;;;6272792;28;20088;-65
2022/09/26 10:54:59;;;;;;;9.05;6.47;;;;;;;;;;6275853;28;20111;-65
2022/09/26 10:58:04;;;;;;;9.10;5.85;;;;;;;;;;6272324;28;20097;-66
2022/09/26 11:01:06;;;;;;;9.95;7.15;;;;;;;;;;6271687;28;20201;-66
2022/09/26 11:05:55;;;;;;;7.53;6.50;;;;;;;;;;6272512;28;20045;-65
2022/09/26 11:07:41;;;;;;;9.23;6.30;;;;;;;;;;6272658;28;20059;-65
2022/09/26 11:10:45;;;;;;;6.30;5.57;;;;;;;;;;6271046;28;20052;-65
2022/09/26 11:14:00;;;;;;;8.93;5.78;;;;;;;;;;6273295;28;20053;-65
2022/09/26 11:17:02;;;;;;;6.20;5.60;;;;;;;;;;6274752;28;20041;-61
2022/09/26 11:20:08;;;;;;;7.90;6.68;;;;;;;;;;6271222;28;20067;-63
2022/09/26 11:23:16;;;;;;;8.30;7.28;;;;;;;;;;6273379;28;20057;-64
2022/09/26 11:26:21;;;;;;;7.90;7.10;;;;;;;;;;6272361;28;20068;-63
2022/09/26 11:29:33;;;;;;;11.27;8.35;;;;;;;;;;6271752;28;20041;-65
2022/09/26 11:32:39;;;;;;;10.57;9.48;;;;;;;;;;6274121;28;20052;-64
2022/09/26 11:35:51;;;;;;;10.23;7.95;;;;;;;;;;6273920;28;20128;-65
2022/09/26 11:38:56;;;;;;;9.48;8.27;;;;;;;;;;6277749;28;20052;-63
2022/09/26 11:42:06;;;;;;;9.75;7.43;;;;;;;;;;6279736;28;20139;-66
2022/09/26 11:45:15;;;;;;;8.63;6.40;;;;;;;;;;6278484;28;20041;-65
2022/09/26 11:48:27;;;;;;;7.63;5.55;;;;;;;;;;6278974;28;20053;-63
2022/09/26 11:51:42;;;;;;;7.15;5.60;;;;;;;;;;6279761;28;20045;-64
2022/09/26 11:54:57;;;;;;;7.35;5.38;;;;;;;;;;6280290;28;20071;-64
2022/09/26 11:58:03;;;;;;;7.15;5.45;;;;;;;;;;6279565;28;20087;-66
2022/09/26 12:01:11;;;;;;;9.48;5.40;;;;;;;;;;6275723;28;20045;-64
2022/09/26 12:04:40;;;;;;;6.32;4.40;;;;;;;;;;6274877;28;20651;-62
2022/09/26 12:07:48;;;;;;;6.85;3.33;;;;;;;;;;6274665;28;20056;-63
2022/09/26 12:10:56;;;;;;;4.15;3.75;;;;;;;;;;6274682;28;20056;-62
2022/09/26 12:14:03;;;;;;;5.03;4.10;;;;;;;;;;6277040;28;20080;-63
2022/09/26 12:17:09;;;;;;;3.90;3.25;;;;;;;;;;6275994;28;20315;-63
2022/09/26 12:20:20;;;;;;;4.88;4.38;;;;;;;;;;6275176;28;20049;-62
2022/09/26 12:23:29;;;;;;;4.32;3.70;;;;;;;;;;6275832;28;20114;-63
2022/09/26 12:26:35;;;;;;;4.63;3.95;;;;;;;;;;6274077;28;20397;-63
2022/09/26 12:29:44;;;;;;;3.97;3.10;;;;;;;;;;6276120;28;20053;-63
2022/09/26 12:33:07;;;;;;;5.32;3.83;;;;;;;;;;6275426;28;20049;-64
2022/09/26 12:36:17;;;;;;;5.20;3.42;;;;;;;;;;6276235;28;20103;-64
2022/09/26 12:39:41;;;;;;;2.92;2.60;;;;;;;;;;6276883;28;20044;-64
2022/09/26 12:42:47;;;;;;;;;;;;;;;;;;6277519;28;20351;-64
2022/09/26 12:46:14;;;;;;;4.78;3.78;;;;;;;;;;6276846;28;20125;-63
2022/09/26 12:49:31;;;;;;;3.95;3.60;;;;;;;;;;6274799;28;20045;-63
2022/09/26 12:52:53;;;;;;;5.47;3.90;;;;;;;;;;6276422;28;20041;-64
2022/09/26 12:56:02;;;;;;;4.60;3.67;;;;;;;;;;6277690;28;20045;-64
2022/09/26 12:59:21;;;;;;;4.95;2.95;;;;;;;;;;6280453;28;20324;-64
2022/09/26 13:02:51;;;;;;;3.55;2.75;;;;;;;;;;6281424;28;20059;-64
2022/09/26 13:06:18;;;;;;;4.63;3.70;;;;;;;;;;6278663;28;20052;-64
2022/09/26 13:09:31;;;;;;;4.05;3.10;;;;;;;;;;6281466;28;20051;-63
2022/09/26 13:12:47;;;;;;;5.55;3.47;;;;;;;;;;6281190;28;20074;-64
2022/09/26 13:15:59;;;;;;;4.93;3.63;;;;;;;;;;6262097;28;20053;-64
2022/09/26 13:19:05;;;;;;;5.28;3.85;;;;;;;;;;6264180;28;20267;-64
2022/09/26 13:22:24;;;;;;;3.85;3.15;;;;;;;;;;6274736;28;20091;-63
2022/09/26 13:25:31;;;;;;;5.53;3.67;;;;;;;;;;6274898;28;20138;-64
2022/09/26 13:28:37;;;;;;;4.47;2.53;;;;;;;;;;6275319;28;20069;-64
2022/09/26 13:31:41;;;;;;;2.75;2.17;;;;;;;;;;6276671;28;20152;-64
2022/09/26 13:34:47;;;;;;;3.33;1.90;;;;;;;;;;6276521;28;20093;-64
2022/09/26 13:37:56;;;;;;;2.92;1.75;;;;;;;;;;6276463;28;20052;-64
2022/09/26 13:41:07;;;;;;;2.00;1.40;;;;;;;;;;6271551;28;20045;-63
2022/09/26 13:44:21;;;;;;;2.88;2.10;;;;;;;;;;6278447;28;20053;-64
2022/09/26 13:47:32;;;;;;;6.60;1.80;;;;;;;;;;6277810;28;20040;-63
2022/09/26 13:50:40;;;;;;;5.93;2.15;;;;;;;;;;6276749;28;20053;-64
2022/09/26 13:53:47;;;;;;;4.07;2.13;;;;;;;;;;6277470;28;20140;-64
2022/09/26 13:56:49;;;;;;;2.63;1.73;;;;;;;;;;6277223;28;20049;-63
2022/09/26 13:59:53;;;;;;;11.30;2.20;;;;;;;;;;6278848;28;20044;-64
2022/09/26 14:03:28;;;;;;;2.72;2.22;;;;;;;;;;6278009;28;20045;-64
2022/09/26 14:06:33;;;;;;;1.90;1.50;;;;;;;;;;6278950;28;20076;-64
2022/09/26 14:09:40;;;;;;;3.05;1.33;;;;;;;;;;6279102;28;20090;-63
2022/09/26 14:13:07;;;;;;;3.70;1.48;;;;;;;;;;6278609;28;20041;-63
2022/09/26 14:16:35;;;;;;;2.45;1.80;;;;;;;;;;6279850;28;20113;-63
2022/09/26 14:19:40;;;;;;;4.00;1.67;;;;;;;;;;6278427;28;20112;-63
2022/09/26 14:22:50;;;;;;;3.40;1.70;;;;;;;;;;6279927;28;20044;-64
2022/09/26 14:25:57;;;;;;;3.83;1.60;;;;;;;;;;6281251;28;20059;-63
2022/09/26 14:29:23;;;;;;;2.05;1.60;;;;;;;;;;6276994;28;20053;-61
2022/09/26 14:32:29;;;;;;;5.18;2.33;;;;;;;;;;6280368;28;20053;-63
2022/09/26 14:35:32;;;;;;;2.30;1.60;;;;;;;;;;6279795;28;20091;-64
2022/09/26 14:38:39;;;;;;;4.55;1.48;;;;;;;;;;6279463;28;20079;-69
2022/09/26 14:41:41;;;;;;;2.85;1.60;;;;;;;;;;6279286;28;20048;-68
2022/09/26 14:44:51;;;;;;;2.80;1.50;;;;;;;;;;6279020;28;20056;-67
2022/09/26 14:48:06;;;;;;;2.35;1.63;;;;;;;;;;6278823;28;20140;-64
2022/09/26 14:51:24;;;;;;;1.42;1.05;;;;;;;;;;6277969;28;20044;-67
2022/09/26 14:54:30;;;;;;;4.20;1.50;;;;;;;;;;6278711;28;20044;-65
2022/09/26 14:57:33;;;;;;;3.70;1.33;;;;;;;;;;6276964;28;20051;-65
2022/09/26 15:00:39;;;;;;;13.50;1.83;;;;;;;;;;6277859;28;20355;-66
2022/09/26 15:03:42;;;;;;;2.65;1.40;;;;;;;;;;6269836;28;20100;-65
2022/09/26 15:06:44;;;;;;;;;;;;;;;;;;6276513;28;20041;-64
2022/09/26 15:09:50;;;;;;;4.95;1.60;;;;;;;;;;6274430;28;19917;-63
2022/09/26 15:13:02;;;;;;;8.18;1.63;;;;;;;;;;6275064;28;20052;-66
2022/09/26 15:16:21;;;;;;;4.53;1.30;;;;;;;;;;6276337;28;20064;-64
2022/09/26 15:19:27;;;;;;;4.50;2.05;;;;;;;;;;6276361;28;20116;-64
2022/09/26 15:22:32;;;;;;;2.03;1.60;;;;;;;;;;6278298;28;20412;-65
2022/09/26 15:25:34;;;;;;;4.40;1.60;;;;;;;;;;6275570;28;20264;-65
2022/09/26 15:28:37;;;;;;;14.63;11.23;;;;;;;;;;6272105;28;20186;-62
2022/09/26 15:31:43;;;;;;;169.73;112.90;;;;;;;;;;6267698;28;20139;-64
2022/09/26 15:34:47;;;;;;;84.88;56.85;;;;;;;;;;6263211;28;20225;-63
2022/09/26 15:37:49;;;;;;;37.70;24.58;;;;;;;;;;6272608;28;20056;-62
2022/09/26 15:41:01;;;;;;;8.68;4.53;;;;;;;;;;6275973;28;20049;-62
2022/09/26 15:44:07;;;;;;;26.27;16.75;;;;;;;;;;6275141;28;20225;-62
2022/09/26 15:47:26;;;;;;;16.05;9.82;;;;;;;;;;6274492;28;20270;-63
2022/09/26 15:50:36;;;;;;;4.13;2.28;;;;;;;;;;6269363;28;20236;-66
2022/09/26 15:53:40;;;;;;;4.63;2.13;;;;;;;;;;6279019;28;20053;-66
2022/09/26 15:56:47;;;;;;;4.13;2.38;;;;;;;;;;6268419;28;20332;-66
2022/09/26 15:59:52;;;;;;;3.42;2.00;;;;;;;;;;6276966;28;20063;-66
2022/09/26 16:02:54;;;;;;;3.65;2.10;;;;;;;;;;6274444;28;20068;-66
2022/09/26 16:05:59;;;;;;;2.83;2.47;;;;;;;;;;6278322;28;20083;-66
2022/09/26 16:09:13;;;;;;;2.42;1.90;;;;;;;;;;6278634;28;20147;-64
2022/09/26 16:12:21;;;;;;;6.10;2.20;;;;;;;;;;6277259;28;20317;-66
2022/09/26 16:15:29;;;;;;;2.78;2.20;;;;;;;;;;6276702;28;20056;-66
2022/09/26 16:18:38;;;;;;;3.92;2.30;;;;;;;;;;6276923;28;20045;-66
2022/09/26 16:21:45;;;;;;;3.78;1.80;;;;;;;;;;6273166;28;20059;-66
2022/09/26 16:24:51;;;;;;;6.75;2.33;;;;;;;;;;6273681;28;20232;-63
2022/09/26 16:27:59;;;;;;;3.08;2.17;;;;;;;;;;6276940;28;20049;-63
2022/09/26 16:31:11;;;;;;;5.07;2.30;;;;;;;;;;6271486;28;20098;-66
2022/09/26 16:34:21;;;;;;;3.80;2.13;;;;;;;;;;6279192;28;20064;-63
2022/09/26 16:37:25;;;;;;;4.03;2.50;;;;;;;;;;6276920;28;20064;-64
2022/09/26 16:40:29;;;;;;;4.35;2.40;;;;;;;;;;6279652;28;20063;-65
2022/09/26 16:43:34;;;;;;;6.40;3.20;;;;;;;;;;6281720;28;20328;-65
2022/09/26 16:46:37;;;;;;;5.07;3.70;;;;;;;;;;6278904;28;20432;-64
2022/09/26 16:49:44;;;;;;;5.53;3.70;;;;;;;;;;6281616;28;20080;-66
2022/09/26 16:52:49;;;;;;;12.65;4.97;;;;;;;;;;6279316;28;20059;-65
2022/09/26 16:55:52;;;;;;;6.68;4.30;;;;;;;;;;6277143;28;20124;-65
2022/09/26 16:58:57;;;;;;;8.82;5.55;;;;;;;;;;6273871;28;20055;-64
2022/09/26 17:02:00;;;;;;;7.95;4.90;;;;;;;;;;6277210;28;20056;-61
2022/09/26 17:05:04;;;;;;;10.52;5.65;;;;;;;;;;6277934;28;20091;-61
2022/09/26 17:08:09;;;;;;;8.98;5.85;;;;;;;;;;6275474;28;20053;-61
2022/09/26 17:11:16;;;;;;;11.27;6.32;;;;;;;;;;6273010;28;20079;-61
2022/09/26 17:14:22;;;;;;;8.95;5.72;;;;;;;;;;6274935;28;20069;-61
2022/09/26 17:17:24;;;;;;;8.95;5.82;;;;;;;;;;6272293;28;20697;-61
2022/09/26 17:20:28;;;;;;;8.65;6.03;;;;;;;;;;6272158;28;20064;-62
2022/09/26 17:23:32;;;;;;;;;;;;;;;;;;6275368;28;20106;-61
2022/09/26 17:26:35;;;;;;;;;;;;;;;;;;6273364;28;19920;-62
2022/09/26 17:29:39;;;;;;;9.93;5.13;;;;;;;;;;6274932;28;19992;-62
2022/09/26 17:32:43;;;;;;;7.22;5.07;;;;;;;;;;6278309;28;20879;-62
2022/09/26 17:35:46;;;;;;;9.07;4.95;;;;;;;;;;6278085;28;20045;-61
2022/09/26 17:38:53;;;;;;;9.52;6.18;;;;;;;;;;6278599;28;20056;-61
2022/09/26 17:41:57;;;;;;;7.75;5.38;;;;;;;;;;6279552;28;20128;-61
2022/09/26 17:44:59;;;;;;;6.90;4.95;;;;;;;;;;6278796;28;20049;-60
2022/09/26 17:48:03;;;;;;;7.57;4.80;;;;;;;;;;6279793;28;20231;-60
2022/09/26 17:51:06;;;;;;;6.97;5.18;;;;;;;;;;6276525;28;20048;-60
2022/09/26 17:54:16;;;;;;;7.10;4.93;;;;;;;;;;6275836;28;20110;-60
2022/09/26 17:57:26;;;;;;;6.75;4.78;;;;;;;;;;6275198;28;20071;-60
2022/09/26 18:00:31;;;;;;;7.78;4.50;;;;;;;;;;6270523;28;20240;-60
2022/09/26 18:03:35;;;;;;;6.38;4.43;;;;;;;;;;6273983;28;20051;-61
2022/09/26 18:06:41;;;;;;;7.00;4.47;;;;;;;;;;6271382;28;20045;-61
2022/09/26 18:09:45;;;;;;;9.25;4.80;;;;;;;;;;6273119;28;20116;-60
2022/09/26 18:12:48;;;;;;;6.82;4.38;;;;;;;;;;6271260;28;20053;-61
2022/09/26 18:15:53;;;;;;;5.70;4.45;;;;;;;;;;6276189;28;20296;-60
2022/09/26 18:18:55;;;;;;;7.60;4.38;;;;;;;;;;6274607;28;20057;-61
2022/09/26 18:21:58;;;;;;;10.60;5.63;;;;;;;;;;6277298;28;20363;-61
2022/09/26 18:25:05;;;;;;;8.32;5.38;;;;;;;;;;6280472;28;20053;-60
2022/09/26 18:28:14;;;;;;;5.40;4.45;;;;;;;;;;6280048;28;20068;-60
2022/09/26 18:31:17;;;;;;;8.65;4.97;;;;;;;;;;6277302;28;20067;-61
2022/09/26 18:34:24;;;;;;;7.65;4.70;;;;;;;;;;6280045;28;20060;-64
2022/09/26 18:37:28;;;;;;;6.00;4.07;;;;;;;;;;6279797;28;20902;-63
2022/09/26 18:40:31;;;;;;;;;;;;;;;;;;6280551;28;20056;-64
2022/09/26 18:43:36;;;;;;;10.80;4.75;;;;;;;;;;6280634;28;20108;-63
2022/09/26 18:46:43;;;;;;;7.07;4.53;;;;;;;;;;6279518;28;20053;-62
2022/09/26 18:49:46;;;;;;;7.07;4.57;;;;;;;;;;6279630;28;20394;-63